Time;durP1;ratioP1;P1;durP2;ratioP2;P2;SDS_P1;SDS_P2;PMS_P1;PMS_P2;Temp;Humidity;BMP_temperature;BMP_pressure;BME280_temperature;BME280_humidity;BME280_pressure;Samples;Min_cycle;Max_cycle;Signal;HPM_P1;HPM_P2
2022/09/01 00:00:01;;;;;;;7.50;4.13;;;23.30;89.80;;;;;;5058967;28;20340;-75
2022/09/01 00:02:30;;;;;;;9.75;4.30;;;23.20;89.80;;;;;;5060215;28;20194;-77
2022/09/01 00:04:59;;;;;;;7.47;4.45;;;23.20;89.80;;;;;;5056251;28;20190;-77
2022/09/01 00:07:30;;;;;;;7.78;4.35;;;23.20;90.30;;;;;;5061157;28;20202;-78
2022/09/01 00:09:58;;;;;;;11.82;4.72;;;23.10;89.80;;;;;;5056907;28;20194;-78
2022/09/01 00:12:28;;;;;;;8.18;4.22;;;23.20;89.70;;;;;;5053921;28;20641;-77
2022/09/01 00:14:57;;;;;;;7.53;3.83;;;23.10;90.00;;;;;;5058934;28;20203;-80
2022/09/01 00:17:26;;;;;;;6.82;4.13;;;23.10;90.00;;;;;;5059111;28;20201;-79
2022/09/01 00:19:55;;;;;;;10.02;4.45;;;23.20;89.90;;;;;;5060531;28;20209;-81
2022/09/01 00:22:23;;;;;;;8.40;5.30;;;23.10;90.00;;;;;;5063032;28;20198;-78
2022/09/01 00:24:53;;;;;;;11.93;4.95;;;23.10;90.00;;;;;;5057139;28;20194;-79
2022/09/01 00:27:22;;;;;;;6.57;4.22;;;23.10;90.10;;;;;;5061089;28;20273;-80
2022/09/01 00:29:58;;;;;;;6.45;4.43;;;23.00;90.20;;;;;;5065918;28;20281;-79
2022/09/01 00:32:26;;;;;;;8.90;4.30;;;23.00;90.20;;;;;;5063522;28;20190;-79
2022/09/01 00:34:55;;;;;;;9.82;4.65;;;23.10;90.20;;;;;;5062607;28;20218;-80
2022/09/01 00:37:23;;;;;;;10.48;4.70;;;23.00;90.20;;;;;;5059154;28;20190;-79
2022/09/01 00:39:53;;;;;;;11.35;5.07;;;23.00;90.40;;;;;;5059256;28;20217;-80
2022/09/01 00:42:22;;;;;;;8.73;4.78;;;23.00;90.30;;;;;;5068977;28;20194;-79
2022/09/01 00:44:50;;;;;;;9.77;4.60;;;23.00;90.30;;;;;;5065624;28;20202;-80
2022/09/01 00:47:19;;;;;;;6.70;4.13;;;23.00;90.30;;;;;;5073300;28;20230;-79
2022/09/01 00:49:51;;;;;;;12.07;4.68;;;23.00;90.20;;;;;;5072280;28;20286;-80
2022/09/01 00:52:22;;;;;;;8.55;4.75;;;23.00;90.20;;;;;;5067096;28;20839;-81
2022/09/01 00:54:56;;;;;;;6.50;4.05;;;22.90;90.20;;;;;;5064077;28;20606;-80
2022/09/01 00:57:26;;;;;;;8.57;4.68;;;23.00;90.20;;;;;;5067290;28;20281;-81
2022/09/01 00:59:58;;;;;;;11.07;4.15;;;22.90;90.10;;;;;;5066510;28;20336;-79
2022/09/01 01:02:27;;;;;;;7.72;4.20;;;22.90;90.20;;;;;;5067261;28;20197;-78
2022/09/01 01:04:59;;;;;;;8.70;4.20;;;22.90;90.10;;;;;;5064330;28;20193;-78
2022/09/01 01:07:29;;;;;;;8.82;4.80;;;22.90;90.00;;;;;;5069698;28;20202;-78
2022/09/01 01:09:59;;;;;;;7.05;4.05;;;22.90;90.00;;;;;;5066213;28;20281;-79
2022/09/01 01:12:29;;;;;;;8.88;3.60;;;22.90;89.90;;;;;;5063432;28;20198;-78
2022/09/01 01:14:58;;;;;;;7.57;4.30;;;22.90;90.00;;;;;;5066109;28;20285;-79
2022/09/01 01:17:26;;;;;;;9.13;4.70;;;22.80;89.90;;;;;;5069697;28;20450;-79
2022/09/01 01:23:04;;;;;;;10.75;4.47;;;22.80;90.00;;;;;;5071837;28;20609;-81
2022/09/01 01:25:37;;;;;;;8.35;4.20;;;22.80;90.00;;;;;;5066493;28;20228;-81
2022/09/01 01:28:09;;;;;;;6.60;4.15;;;22.80;90.00;;;;;;5058316;28;20284;-80
2022/09/01 01:30:39;;;;;;;6.88;3.97;;;22.80;90.00;;;;;;5060871;28;20209;-79
2022/09/01 01:33:08;;;;;;;7.97;4.07;;;22.80;90.00;;;;;;5062707;28;20206;-79
2022/09/01 01:35:40;;;;;;;9.48;4.20;;;22.80;90.10;;;;;;5066641;28;20214;-81
2022/09/01 01:38:10;;;;;;;7.47;4.47;;;22.80;90.00;;;;;;5060508;28;20193;-82
2022/09/01 01:40:40;;;;;;;5.75;4.03;;;22.70;90.10;;;;;;5061737;28;20226;-77
2022/09/01 01:43:10;;;;;;;7.10;3.97;;;22.80;90.10;;;;;;5066592;28;21462;-77
2022/09/01 01:45:38;;;;;;;7.40;4.57;;;22.70;90.10;;;;;;5067881;28;20201;-78
2022/09/01 01:48:07;;;;;;;8.27;3.50;;;22.70;90.10;;;;;;5068103;28;20828;-78
2022/09/01 01:50:37;;;;;;;8.48;4.32;;;22.70;90.20;;;;;;5060295;28;20419;-77
2022/09/01 01:53:08;;;;;;;11.50;4.25;;;22.70;90.10;;;;;;5069377;28;20194;-79
2022/09/01 01:55:40;;;;;;;6.25;4.00;;;22.70;90.10;;;;;;5066843;28;20786;-78
2022/09/01 01:58:10;;;;;;;7.22;4.30;;;22.70;90.00;;;;;;5062332;28;20278;-78
2022/09/01 02:00:43;;;;;;;6.35;3.97;;;22.70;90.00;;;;;;5060120;28;20194;-81
2022/09/01 02:03:16;;;;;;;6.57;4.28;;;22.70;90.00;;;;;;5063934;28;20801;-80
2022/09/01 02:05:45;;;;;;;7.20;4.28;;;22.70;89.80;;;;;;5065136;28;20194;-82
2022/09/01 02:08:17;;;;;;;12.02;4.75;;;22.70;89.80;;;;;;5062868;28;20226;-80
2022/09/01 02:10:49;;;;;;;9.40;4.30;;;22.70;89.70;;;;;;5061286;28;20202;-80
2022/09/01 02:13:29;;;;;;;8.77;3.70;;;22.70;89.60;;;;;;5064925;28;20604;-82
2022/09/01 02:16:01;;;;;;;10.68;4.50;;;22.70;89.40;;;;;;5061377;28;20233;-81
2022/09/01 02:18:34;;;;;;;7.60;3.80;;;22.70;89.40;;;;;;5066195;28;20186;-80
2022/09/01 02:21:09;;;;;;;9.77;3.85;;;22.70;89.40;;;;;;5061647;28;20277;-80
2022/09/01 02:23:43;;;;;;;6.88;4.47;;;22.70;89.40;;;;;;5062996;28;20549;-79
2022/09/01 02:26:14;;;;;;;7.30;4.00;;;22.80;89.30;;;;;;5065167;28;20194;-79
2022/09/01 02:28:48;;;;;;;5.30;3.80;;;22.80;89.30;;;;;;5061984;28;20222;-81
2022/09/01 02:31:26;;;;;;;5.47;3.95;;;22.80;89.20;;;;;;5057441;28;20939;-79
2022/09/01 02:33:55;;;;;;;8.13;4.03;;;22.80;89.10;;;;;;5063799;28;20248;-80
2022/09/01 02:36:24;;;;;;;6.57;4.00;;;22.80;89.10;;;;;;5059358;28;20194;-80
2022/09/01 02:38:54;;;;;;;6.85;4.07;;;22.80;89.00;;;;;;5058152;28;20662;-79
2022/09/01 02:41:27;;;;;;;7.53;4.13;;;22.80;89.20;;;;;;5054670;28;20218;-82
2022/09/01 02:43:59;;;;;;;6.20;3.50;;;22.70;89.20;;;;;;5060232;28;20703;-81
2022/09/01 02:46:28;;;;;;;5.82;3.97;;;22.70;89.10;;;;;;5063361;28;20205;-80
2022/09/01 02:48:59;;;;;;;11.98;4.82;;;22.70;89.10;;;;;;5062603;28;20723;-81
2022/09/01 02:51:28;;;;;;;5.90;3.70;;;22.70;89.10;;;;;;5062496;28;20198;-82
2022/09/01 02:53:56;;;;;;;6.43;3.83;;;22.70;89.10;;;;;;5060658;28;20643;-80
2022/09/01 02:56:26;;;;;;;7.85;3.63;;;22.70;89.00;;;;;;5062076;28;20191;-83
2022/09/01 02:58:55;;;;;;;6.80;3.53;;;22.70;88.90;;;;;;5063897;28;20194;-81
2022/09/01 03:01:28;;;;;;;6.50;4.00;;;22.70;89.00;;;;;;5054303;28;20202;-77
2022/09/01 03:03:59;;;;;;;8.25;3.67;;;22.70;89.10;;;;;;5063948;28;20800;-78
2022/09/01 03:06:28;;;;;;;6.20;3.75;;;22.70;89.10;;;;;;5064570;28;20194;-78
2022/09/01 03:08:58;;;;;;;7.80;3.75;;;22.70;89.00;;;;;;5059879;28;20235;-79
2022/09/01 03:11:31;;;;;;;5.78;3.58;;;22.70;88.90;;;;;;5058871;28;20205;-76
2022/09/01 03:14:00;;;;;;;5.70;3.80;;;22.70;88.80;;;;;;5066904;28;20190;-82
2022/09/01 03:16:29;;;;;;;5.90;3.83;;;22.70;88.80;;;;;;5063471;28;20304;-79
2022/09/01 03:18:58;;;;;;;7.63;4.47;;;22.70;88.80;;;;;;5062094;28;20563;-82
2022/09/01 03:21:28;;;;;;;6.15;3.83;;;22.70;88.90;;;;;;5065995;28;20189;-80
2022/09/01 03:23:57;;;;;;;7.20;4.20;;;22.70;88.80;;;;;;5062866;28;20190;-80
2022/09/01 03:26:25;;;;;;;6.90;3.45;;;22.70;88.80;;;;;;5052415;28;20259;-78
2022/09/01 03:28:55;;;;;;;6.35;3.85;;;22.70;88.80;;;;;;5056686;28;20209;-80
2022/09/01 03:31:26;;;;;;;7.97;3.85;;;22.70;88.70;;;;;;5064066;28;20201;-82
2022/09/01 03:33:59;;;;;;;6.68;4.00;;;22.70;88.70;;;;;;5059585;28;20292;-81
2022/09/01 03:36:29;;;;;;;6.63;3.85;;;22.70;88.60;;;;;;5058567;28;20291;-79
2022/09/01 03:38:58;;;;;;;6.97;3.70;;;22.70;88.60;;;;;;5054132;28;20699;-80
2022/09/01 03:41:29;;;;;;;9.85;3.78;;;22.70;88.50;;;;;;5056708;28;20211;-81
2022/09/01 03:43:59;;;;;;;6.07;3.72;;;22.70;88.50;;;;;;5060981;28;20680;-81
2022/09/01 03:46:30;;;;;;;6.60;4.15;;;22.80;88.50;;;;;;5061213;28;20191;-80
2022/09/01 03:49:06;;;;;;;8.10;4.40;;;22.70;88.40;;;;;;5055651;28;20198;-80
2022/09/01 03:51:37;;;;;;;7.88;4.13;;;22.80;88.50;;;;;;5061386;28;20228;-80
2022/09/01 03:54:06;;;;;;;11.45;4.22;;;22.70;88.40;;;;;;5060242;28;20191;-81
2022/09/01 03:56:40;;;;;;;9.25;4.07;;;22.80;88.30;;;;;;5058684;28;20218;-79
2022/09/01 03:59:15;;;;;;;8.60;4.28;;;22.80;88.30;;;;;;5060838;28;20197;-79
2022/09/01 04:01:45;;;;;;;7.38;4.57;;;22.80;88.30;;;;;;5060882;28;20229;-78
2022/09/01 04:04:15;;;;;;;9.25;4.53;;;22.80;88.40;;;;;;5059223;28;20194;-80
2022/09/01 04:06:47;;;;;;;9.90;4.30;;;22.80;88.20;;;;;;5056944;28;20194;-81
2022/09/01 04:09:16;;;;;;;8.63;4.25;;;22.80;88.20;;;;;;5051629;28;20222;-80
2022/09/01 04:11:45;;;;;;;8.60;4.75;;;22.80;88.30;;;;;;5062922;28;20210;-79
2022/09/01 04:14:16;;;;;;;7.90;4.22;;;22.90;88.30;;;;;;5056876;28;20874;-81
2022/09/01 04:19:36;;;;;;;7.35;4.50;;;22.90;88.20;;;;;;5049818;28;20215;-81
2022/09/01 04:22:06;;;;;;;7.50;4.47;;;23.00;88.20;;;;;;5060148;28;20198;-79
2022/09/01 04:24:35;;;;;;;8.65;4.90;;;23.00;88.20;;;;;;5061137;28;20487;-79
2022/09/01 04:27:06;;;;;;;6.28;4.15;;;23.00;88.30;;;;;;5063152;28;20304;-78
2022/09/01 04:29:36;;;;;;;7.43;4.10;;;23.00;88.20;;;;;;5059868;28;20699;-78
2022/09/01 04:32:11;;;;;;;10.90;5.22;;;23.00;88.00;;;;;;5059868;28;20195;-82
2022/09/01 04:34:40;;;;;;;8.60;4.35;;;23.10;88.00;;;;;;5058705;28;20213;-80
2022/09/01 04:37:11;;;;;;;7.28;4.32;;;23.10;87.90;;;;;;5059550;28;20215;-81
2022/09/01 04:39:47;;;;;;;8.45;4.72;;;23.10;87.70;;;;;;5059689;28;20198;-79
2022/09/01 04:42:27;;;;;;;6.82;3.88;;;23.10;87.90;;;;;;5058410;28;20205;-80
2022/09/01 04:45:00;;;;;;;9.50;4.70;;;23.10;87.70;;;;;;5058666;28;20206;-79
2022/09/01 04:47:40;;;;;;;8.38;4.25;;;23.20;87.70;;;;;;5053928;28;20230;-80
2022/09/01 04:50:13;;;;;;;8.48;4.15;;;23.20;87.60;;;;;;5058465;28;20191;-80
2022/09/01 04:52:42;;;;;;;9.60;4.30;;;23.20;87.50;;;;;;5059296;28;20711;-80
2022/09/01 04:55:16;;;;;;;8.73;3.70;;;23.30;87.50;;;;;;5055888;28;20201;-81
2022/09/01 04:57:48;;;;;;;7.28;4.45;;;23.30;87.30;;;;;;5066136;28;20222;-79
2022/09/01 05:00:23;;;;;;;6.18;4.05;;;23.30;87.10;;;;;;5060142;28;20245;-80
2022/09/01 05:03:02;;;;;;;6.63;3.88;;;23.30;87.10;;;;;;5065060;28;20273;-83
2022/09/01 05:05:38;;;;;;;6.45;4.60;;;23.40;86.90;;;;;;5059232;28;20254;-83
2022/09/01 05:08:09;;;;;;;8.77;4.60;;;23.40;86.70;;;;;;5057254;28;20227;-80
2022/09/01 05:10:41;;;;;;;10.88;4.43;;;23.40;86.60;;;;;;5054427;28;20225;-82
2022/09/01 05:13:16;;;;;;;9.77;3.95;;;23.40;86.50;;;;;;5058888;28;20183;-81
2022/09/01 05:15:47;;;;;;;6.97;4.20;;;23.50;86.50;;;;;;5064762;28;20448;-82
2022/09/01 05:18:22;;;;;;;10.32;4.40;;;23.50;86.20;;;;;;5064291;28;20189;-83
2022/09/01 05:20:51;;;;;;;6.40;4.20;;;23.50;86.10;;;;;;5063817;28;20194;-84
2022/09/01 05:23:22;;;;;;;7.13;4.40;;;23.50;85.80;;;;;;5063891;28;20221;-81
2022/09/01 05:25:53;;;;;;;6.30;3.47;;;23.60;85.60;;;;;;5067250;28;20183;-84
2022/09/01 05:28:25;;;;;;;7.45;3.92;;;23.60;85.50;;;;;;5067410;28;20190;-82
2022/09/01 05:30:55;;;;;;;10.27;4.32;;;23.60;85.20;;;;;;5067183;28;20257;-80
2022/09/01 05:33:24;;;;;;;8.95;3.90;;;23.70;85.10;;;;;;5067447;28;20197;-81
2022/09/01 05:35:55;;;;;;;6.57;3.72;;;23.70;84.70;;;;;;5065806;28;20218;-81
2022/09/01 05:38:24;;;;;;;8.43;3.67;;;23.80;84.70;;;;;;5066348;28;20200;-79
2022/09/01 05:40:57;;;;;;;5.55;3.67;;;23.90;84.70;;;;;;5052766;28;21458;-81
2022/09/01 05:43:29;;;;;;;8.07;4.28;;;24.00;84.70;;;;;;5060749;28;20844;-83
2022/09/01 05:46:02;;;;;;;7.68;3.47;;;24.00;84.20;;;;;;5064899;28;20206;-81
2022/09/01 05:48:38;;;;;;;5.65;3.45;;;24.10;84.10;;;;;;5057184;28;20210;-79
2022/09/01 05:51:08;;;;;;;11.80;4.22;;;24.10;83.80;;;;;;5063593;28;20640;-81
2022/09/01 05:53:57;;;;;;;5.43;3.53;;;24.20;83.80;;;;;;5060093;28;20294;-81
2022/09/01 05:56:28;;;;;;;6.43;3.95;;;24.20;82.80;;;;;;5064459;28;20293;-79
2022/09/01 05:58:58;;;;;;;10.25;3.67;;;24.20;82.20;;;;;;5065892;28;20198;-80
2022/09/01 06:02:02;;;;;;;7.75;3.60;;;24.20;81.90;;;;;;5058466;28;20743;-80
2022/09/01 06:04:34;;;;;;;5.45;3.58;;;24.20;81.40;;;;;;5060281;28;20198;-81
2022/09/01 06:07:07;;;;;;;8.88;3.15;;;24.30;81.10;;;;;;5058567;28;20194;-83
2022/09/01 06:09:41;;;;;;;7.18;4.22;;;24.30;80.90;;;;;;5066658;28;20182;-81
2022/09/01 06:12:16;;;;;;;10.90;3.72;;;24.30;80.50;;;;;;5062403;28;20594;-84
2022/09/01 06:14:47;;;;;;;6.50;3.40;;;24.30;80.80;;;;;;5059902;28;20295;-82
2022/09/01 06:17:23;;;;;;;7.78;3.70;;;24.40;80.50;;;;;;5065267;28;20210;-80
2022/09/01 06:19:54;;;;;;;8.00;3.97;;;24.40;80.20;;;;;;5065528;28;20873;-80
2022/09/01 06:22:24;;;;;;;8.23;3.85;;;24.40;80.40;;;;;;5057476;28;20198;-80
2022/09/01 06:24:53;;;;;;;7.40;4.10;;;24.50;80.20;;;;;;5061274;28;20206;-83
2022/09/01 06:27:29;;;;;;;6.50;3.90;;;24.50;79.50;;;;;;5061474;28;20228;-81
2022/09/01 06:29:58;;;;;;;7.78;3.45;;;24.60;79.70;;;;;;5063981;28;20201;-81
2022/09/01 06:32:28;;;;;;;6.38;3.90;;;24.60;79.60;;;;;;5065230;28;20235;-81
2022/09/01 06:34:59;;;;;;;9.20;3.63;;;24.70;79.00;;;;;;5068390;28;20190;-82
2022/09/01 06:37:29;;;;;;;11.90;4.03;;;24.70;79.20;;;;;;5062488;28;20605;-81
2022/09/01 06:40:01;;;;;;;6.07;3.22;;;24.90;79.60;;;;;;5065071;28;20203;-87
2022/09/01 06:42:30;;;;;;;6.50;3.40;;;25.00;79.80;;;;;;5059008;28;20202;-82
2022/09/01 06:44:58;;;;;;;4.75;3.17;;;25.10;79.50;;;;;;5063394;28;20210;-84
2022/09/01 06:47:28;;;;;;;8.13;3.38;;;25.10;78.20;;;;;;5064301;28;20382;-80
2022/09/01 06:49:57;;;;;;;9.68;3.50;;;25.20;78.40;;;;;;5067742;28;20679;-83
2022/09/01 06:52:26;;;;;;;6.07;3.17;;;25.30;78.50;;;;;;5063065;28;20203;-82
2022/09/01 06:54:56;;;;;;;9.25;3.58;;;25.30;78.10;;;;;;5060667;28;20280;-81
2022/09/01 06:57:26;;;;;;;6.63;3.45;;;25.40;78.10;;;;;;5060421;28;20214;-82
2022/09/01 07:00:17;;;;;;;7.00;3.65;;;25.40;77.80;;;;;;5061758;28;20772;-83
2022/09/01 07:02:52;;;;;;;6.32;3.00;;;25.50;77.70;;;;;;5060619;28;20248;-81
2022/09/01 07:05:21;;;;;;;4.88;3.08;;;25.60;77.20;;;;;;5053913;28;20209;-80
2022/09/01 07:08:16;;;;;;;6.18;3.28;;;25.60;77.00;;;;;;5056990;28;20230;-81
2022/09/01 07:10:48;;;;;;;7.90;3.22;;;25.60;74.50;;;;;;5059724;28;20202;-79
2022/09/01 07:13:38;;;;;;;5.50;3.13;;;25.60;74.10;;;;;;5054357;28;20209;-78
2022/09/01 07:16:28;;;;;;;7.20;3.47;;;25.60;75.00;;;;;;5054945;28;20229;-82
2022/09/01 07:19:18;;;;;;;10.38;3.30;;;25.70;74.40;;;;;;5061864;28;20228;-81
2022/09/01 07:21:46;;;;;;;8.38;3.47;;;25.60;73.80;;;;;;5064575;28;20229;-81
2022/09/01 07:24:34;;;;;;;7.63;3.28;;;25.70;73.30;;;;;;5060952;28;20194;-79
2022/09/01 07:27:03;;;;;;;6.47;3.40;;;25.70;73.70;;;;;;5057186;28;20285;-79
2022/09/01 07:29:35;;;;;;;4.50;2.97;;;25.80;74.20;;;;;;5062537;28;20198;-79
2022/09/01 07:32:04;;;;;;;5.60;3.28;;;25.80;73.80;;;;;;5061141;28;20204;-80
2022/09/01 07:34:54;;;;;;;6.53;3.38;;;25.80;72.40;;;;;;5060391;28;20205;-83
2022/09/01 07:37:26;;;;;;;5.15;3.60;;;25.80;72.90;;;;;;5056235;28;20214;-79
2022/09/01 07:40:17;;;;;;;6.00;3.05;;;25.90;72.70;;;;;;5063897;28;20198;-79
2022/09/01 07:43:08;;;;;;;6.90;3.25;;;25.90;73.10;;;;;;5059455;28;20203;-79
2022/09/01 07:45:37;;;;;;;8.38;3.33;;;26.00;73.40;;;;;;5051249;28;20237;-78
2022/09/01 07:48:19;;;;;;;6.28;3.10;;;26.10;73.20;;;;;;5054624;28;20279;-81
2022/09/01 07:51:17;;;;;;;4.00;2.60;;;26.10;73.00;;;;;;5056417;28;20202;-78
2022/09/01 07:54:04;;;;;;;5.45;2.63;;;26.20;72.80;;;;;;5062737;28;20193;-79
2022/09/01 07:56:33;;;;;;;4.95;2.80;;;26.20;72.00;;;;;;5055438;28;20292;-78
2022/09/01 07:59:08;;;;;;;6.70;2.80;;;26.20;71.90;;;;;;5061395;28;20199;-79
2022/09/01 08:01:43;;;;;;;6.03;3.20;;;26.30;72.30;;;;;;5061266;28;20205;-81
2022/09/01 08:04:13;;;;;;;7.38;3.38;;;26.40;72.30;;;;;;5059936;28;20202;-81
2022/09/01 08:06:44;;;;;;;4.60;3.08;;;26.40;71.10;;;;;;5059186;28;20202;-78
2022/09/01 08:09:12;;;;;;;6.32;3.17;;;26.40;70.10;;;;;;5054778;28;20751;-77
2022/09/01 08:12:00;;;;;;;4.50;3.10;;;26.40;69.00;;;;;;5062899;28;20190;-79
2022/09/01 08:14:31;;;;;;;4.95;3.08;;;26.50;70.10;;;;;;5058634;28;20190;-82
2022/09/01 08:17:01;;;;;;;5.00;3.00;;;26.50;70.60;;;;;;5060897;28;20892;-78
2022/09/01 08:19:45;;;;;;;7.03;2.72;;;26.60;70.30;;;;;;5059001;28;20278;-77
2022/09/01 08:22:16;;;;;;;4.53;2.65;;;26.70;69.90;;;;;;5062775;28;20222;-78
2022/09/01 08:24:44;;;;;;;4.30;2.78;;;26.70;69.50;;;;;;5059250;28;20189;-76
2022/09/01 08:27:13;;;;;;;5.72;2.58;;;26.70;69.20;;;;;;5062007;28;20198;-78
2022/09/01 08:29:42;;;;;;;5.75;2.60;;;26.80;68.90;;;;;;5062229;28;20284;-77
2022/09/01 08:32:10;;;;;;;6.07;2.83;;;26.80;68.90;;;;;;5058201;28;20233;-76
2022/09/01 08:34:39;;;;;;;4.72;2.70;;;26.90;68.80;;;;;;5065195;28;20198;-78
2022/09/01 08:37:07;;;;;;;5.63;2.80;;;27.00;69.10;;;;;;5059386;28;20656;-79
2022/09/01 08:39:37;;;;;;;10.98;3.05;;;27.00;69.20;;;;;;5058546;28;20201;-80
2022/09/01 08:42:13;;;;;;;4.70;2.78;;;27.10;69.10;;;;;;5061932;28;20297;-79
2022/09/01 08:44:51;;;;;;;4.03;2.40;;;27.20;69.70;;;;;;5064059;28;20643;-79
2022/09/01 08:47:20;;;;;;;5.30;2.47;;;27.20;69.20;;;;;;5062354;28;20194;-76
2022/09/01 08:50:10;;;;;;;5.65;2.60;;;27.20;68.50;;;;;;5056127;28;20206;-80
2022/09/01 08:52:42;;;;;;;3.80;2.28;;;27.30;68.00;;;;;;5059693;28;20474;-77
2022/09/01 08:55:19;;;;;;;6.90;2.67;;;27.20;68.00;;;;;;5060263;28;20198;-78
2022/09/01 08:57:50;;;;;;;4.00;2.80;;;27.30;67.90;;;;;;5060172;28;20297;-79
2022/09/01 09:00:28;;;;;;;5.78;3.33;;;27.30;67.20;;;;;;5063783;28;20198;-79
2022/09/01 09:03:07;;;;;;;6.60;2.47;;;27.30;66.70;;;;;;5060218;28;20194;-78
2022/09/01 09:05:55;;;;;;;4.55;2.30;;;27.30;66.20;;;;;;5064581;28;20263;-77
2022/09/01 09:08:39;;;;;;;4.45;2.53;;;27.30;66.30;;;;;;5064050;28;20601;-77
2022/09/01 09:11:20;;;;;;;4.45;2.83;;;27.30;66.00;;;;;;5061979;28;20190;-78
2022/09/01 09:14:04;;;;;;;5.70;2.85;;;27.30;65.70;;;;;;5058698;28;20217;-75
2022/09/01 09:16:38;;;;;;;3.90;2.50;;;27.30;65.80;;;;;;5064054;28;20193;-77
2022/09/01 09:19:11;;;;;;;6.07;2.55;;;27.30;66.40;;;;;;5061276;28;20871;-78
2022/09/01 09:21:42;;;;;;;7.53;2.40;;;27.40;66.70;;;;;;5061479;28;20205;-78
2022/09/01 09:24:16;;;;;;;3.78;2.20;;;27.40;65.60;;;;;;5060608;28;20675;-76
2022/09/01 09:26:52;;;;;;;4.72;2.42;;;27.40;65.50;;;;;;5061061;28;20640;-78
2022/09/01 09:29:21;;;;;;;6.53;2.42;;;27.40;65.50;;;;;;5061546;28;20212;-76
2022/09/01 09:32:02;;;;;;;8.07;2.85;;;27.40;65.50;;;;;;5061068;28;20660;-77
2022/09/01 09:34:34;;;;;;;3.38;1.88;;;27.60;65.90;;;;;;5063340;28;20683;-80
2022/09/01 09:37:21;;;;;;;2.90;2.00;;;27.50;64.80;;;;;;5061054;28;20194;-80
2022/09/01 09:40:07;;;;;;;3.70;1.92;;;27.60;64.70;;;;;;5057239;28;20203;-78
2022/09/01 09:42:41;;;;;;;6.07;2.40;;;27.70;65.00;;;;;;5057758;28;20194;-77
2022/09/01 09:45:23;;;;;;;3.50;2.03;;;27.80;65.10;;;;;;5063972;28;20689;-79
2022/09/01 09:47:53;;;;;;;4.90;2.25;;;27.80;65.20;;;;;;5059992;28;20198;-77
2022/09/01 09:50:26;;;;;;;6.80;2.33;;;27.90;65.00;;;;;;5061394;28;20194;-79
2022/09/01 09:53:11;;;;;;;5.30;2.05;;;28.00;64.80;;;;;;5051820;28;20747;-78
2022/09/01 09:55:53;;;;;;;4.35;2.05;;;28.10;64.80;;;;;;5061724;28;20198;-77
2022/09/01 09:58:27;;;;;;;4.18;2.20;;;28.10;63.50;;;;;;5054100;28;20213;-80
2022/09/01 10:01:01;;;;;;;3.97;2.28;;;28.10;63.30;;;;;;5053508;28;20186;-80
2022/09/01 10:03:39;;;;;;;7.13;2.65;;;28.10;63.80;;;;;;5062296;28;20195;-78
2022/09/01 10:06:12;;;;;;;4.53;2.38;;;28.10;63.50;;;;;;5065461;28;20198;-78
2022/09/01 10:08:44;;;;;;;5.40;2.22;;;28.20;64.30;;;;;;5065635;28;20329;-82
2022/09/01 10:11:26;;;;;;;5.80;2.53;;;28.20;63.40;;;;;;5060391;28;20194;-76
2022/09/01 10:14:07;;;;;;;3.17;2.42;;;28.20;62.50;;;;;;5056598;28;20585;-76
2022/09/01 10:16:41;;;;;;;4.40;2.30;;;28.20;62.60;;;;;;5059813;28;20663;-77
2022/09/01 10:19:15;;;;;;;5.10;2.55;;;28.20;62.10;;;;;;5063289;28;20241;-78
2022/09/01 10:21:45;;;;;;;3.30;2.03;;;28.20;62.80;;;;;;5063279;28;20665;-75
2022/09/01 10:24:20;;;;;;;4.35;2.40;;;28.30;62.90;;;;;;5064287;28;20195;-77
2022/09/01 10:26:57;;;;;;;3.90;2.03;;;28.30;63.00;;;;;;5052219;28;20205;-79
2022/09/01 10:29:31;;;;;;;5.32;2.72;;;28.30;63.00;;;;;;5063250;28;20279;-79
2022/09/01 10:32:11;;;;;;;8.52;2.50;;;28.40;63.00;;;;;;5062098;28;20214;-77
2022/09/01 10:35:00;;;;;;;3.85;2.20;;;28.40;63.00;;;;;;5062113;28;20597;-76
2022/09/01 10:37:29;;;;;;;3.90;2.45;;;28.40;62.70;;;;;;5056279;28;20190;-77
2022/09/01 10:40:31;;;;;;;4.05;2.33;;;28.40;62.70;;;;;;5024941;28;20682;-78
2022/09/01 10:43:20;;;;;;;4.18;2.47;;;28.50;62.50;;;;;;5011567;28;20214;-78
2022/09/01 10:45:50;;;;;;;3.92;2.60;;;28.50;62.60;;;;;;5018113;28;20194;-78
2022/09/01 10:48:34;;;;;;;4.35;2.70;;;28.50;62.50;;;;;;5019054;28;20723;-78
2022/09/01 10:51:44;;;;;;;8.73;2.67;;;28.50;62.90;;;;;;5022007;28;20215;-79
2022/09/01 10:54:59;;;;;;;4.35;2.72;;;28.60;62.80;;;;;;5022321;28;20231;-77
2022/09/01 10:57:54;;;;;;;4.47;2.63;;;28.60;62.50;;;;;;4941959;28;20285;-79
2022/09/01 11:00:54;;;;;;;5.88;2.88;;;28.60;62.20;;;;;;4934040;28;20387;-78
2022/09/01 11:04:00;;;;;;;5.00;2.72;;;28.60;62.00;;;;;;5019055;28;20689;-79
2022/09/01 11:07:05;;;;;;;4.70;2.65;;;28.60;62.50;;;;;;5026516;28;20629;-78
2022/09/01 11:09:47;;;;;;;5.00;3.03;;;28.70;62.90;;;;;;5020333;28;20278;-78
2022/09/01 11:12:52;;;;;;;4.32;2.90;;;28.70;62.90;;;;;;5019794;28;20226;-77
2022/09/01 11:15:48;;;;;;;4.68;2.53;;;28.70;62.80;;;;;;4965363;28;20371;-79
2022/09/01 11:18:26;;;;;;;6.97;2.88;;;28.70;62.80;;;;;;5005909;28;20199;-78
2022/09/01 11:21:16;;;;;;;5.97;2.50;;;28.70;63.10;;;;;;5008648;28;20199;-78
2022/09/01 11:23:55;;;;;;;4.93;2.45;;;28.80;63.30;;;;;;5025524;28;20751;-79
2022/09/01 11:26:46;;;;;;;6.03;2.83;;;28.80;63.00;;;;;;5024993;28;20195;-79
2022/09/01 11:30:01;;;;;;;4.45;3.05;;;28.80;62.90;;;;;;5019432;28;20192;-79
2022/09/01 11:32:34;;;;;;;4.13;2.60;;;28.70;62.20;;;;;;5012306;28;20200;-82
2022/09/01 11:35:13;;;;;;;6.18;2.92;;;28.60;62.70;;;;;;5013063;28;20200;-77
2022/09/01 11:37:41;;;;;;;3.40;2.60;;;28.60;62.50;;;;;;5020982;28;20234;-78
2022/09/01 11:40:12;;;;;;;8.13;2.70;;;28.70;62.50;;;;;;5017640;28;20759;-77
2022/09/01 11:42:43;;;;;;;6.78;2.67;;;28.70;62.70;;;;;;5021142;28;20195;-79
2022/09/01 11:45:16;;;;;;;5.40;2.85;;;28.70;63.00;;;;;;5014216;28;20196;-81
2022/09/01 11:47:51;;;;;;;4.82;2.88;;;28.70;62.90;;;;;;5021081;28;20276;-79
2022/09/01 11:50:25;;;;;;;3.75;2.72;;;28.70;62.10;;;;;;5022884;28;20302;-77
2022/09/01 11:52:55;;;;;;;8.93;3.00;;;28.70;62.20;;;;;;5021220;28;20192;-78
2022/09/01 11:55:31;;;;;;;7.20;3.10;;;28.70;62.40;;;;;;5016370;28;21047;-77
2022/09/01 11:58:00;;;;;;;7.18;2.65;;;28.80;62.40;;;;;;5014052;28;20191;-78
2022/09/01 12:00:37;;;;;;;4.53;2.33;;;28.80;62.40;;;;;;5014102;28;20211;-81
2022/09/01 12:03:18;;;;;;;3.67;2.58;;;28.90;62.60;;;;;;5015980;28;20253;-79
2022/09/01 12:06:00;;;;;;;5.03;2.70;;;28.90;62.10;;;;;;5020644;28;20298;-79
2022/09/01 12:08:32;;;;;;;6.97;2.67;;;28.90;61.60;;;;;;5017714;28;20680;-79
2022/09/01 12:11:04;;;;;;;5.53;2.72;;;29.00;60.90;;;;;;5018247;28;20282;-79
2022/09/01 12:13:33;;;;;;;3.67;2.22;;;29.00;60.80;;;;;;5014443;28;20287;-83
2022/09/01 12:16:04;;;;;;;4.72;2.20;;;29.00;61.30;;;;;;5014027;28;20207;-78
2022/09/01 12:18:52;;;;;;;6.97;2.35;;;29.00;61.00;;;;;;5020518;28;20283;-82
2022/09/01 12:21:25;;;;;;;6.60;2.67;;;29.10;61.10;;;;;;5019053;28;20238;-77
2022/09/01 12:23:55;;;;;;;4.30;2.60;;;29.10;60.10;;;;;;5013977;28;20191;-82
2022/09/01 12:26:26;;;;;;;5.82;2.67;;;29.10;60.30;;;;;;5023442;28;20199;-78
2022/09/01 12:28:55;;;;;;;3.38;2.00;;;29.10;60.50;;;;;;5023861;28;20192;-77
2022/09/01 12:31:26;;;;;;;3.50;2.28;;;29.10;59.50;;;;;;5024026;28;20199;-77
2022/09/01 12:33:56;;;;;;;3.97;2.42;;;29.10;59.80;;;;;;5027193;28;20206;-77
2022/09/01 12:36:30;;;;;;;4.85;2.42;;;29.20;60.10;;;;;;5023504;28;20200;-76
2022/09/01 12:39:21;;;;;;;3.42;2.10;;;29.20;60.20;;;;;;5019061;28;20240;-77
2022/09/01 12:42:03;;;;;;;3.20;2.30;;;29.30;60.50;;;;;;5019616;28;20200;-80
2022/09/01 12:44:35;;;;;;;4.85;2.45;;;29.30;59.90;;;;;;5023477;28;20198;-78
2022/09/01 12:47:06;;;;;;;4.47;2.20;;;29.30;60.20;;;;;;5011278;28;20201;-76
2022/09/01 12:49:38;;;;;;;5.05;2.25;;;29.40;60.30;;;;;;5016920;28;20196;-76
2022/09/01 12:52:24;;;;;;;4.55;2.30;;;29.40;60.40;;;;;;5017143;28;20200;-76
2022/09/01 12:55:07;;;;;;;3.40;2.30;;;29.40;60.30;;;;;;5018637;28;20987;-77
2022/09/01 12:57:38;;;;;;;5.20;2.72;;;29.40;60.60;;;;;;5018716;28;20653;-77
2022/09/01 13:00:16;;;;;;;4.75;2.60;;;29.50;60.60;;;;;;5018267;28;20249;-77
2022/09/01 13:02:47;;;;;;;5.75;2.42;;;29.50;60.50;;;;;;5015473;28;20622;-76
2022/09/01 13:05:24;;;;;;;7.43;2.92;;;29.50;60.20;;;;;;5018185;28;20263;-77
2022/09/01 13:08:03;;;;;;;3.63;2.45;;;29.50;60.40;;;;;;5011267;28;20590;-76
2022/09/01 13:10:36;;;;;;;5.60;2.80;;;29.60;60.40;;;;;;5020657;28;20284;-78
2022/09/01 13:13:06;;;;;;;4.05;2.47;;;29.60;60.80;;;;;;5012818;28;20231;-76
2022/09/01 13:15:37;;;;;;;5.78;2.35;;;29.60;60.20;;;;;;5012403;28;20216;-77
2022/09/01 13:18:05;;;;;;;4.53;2.83;;;29.60;60.50;;;;;;5023024;28;20200;-78
2022/09/01 13:20:34;;;;;;;4.82;2.63;;;29.60;60.60;;;;;;5022218;28;20219;-77
2022/09/01 13:23:05;;;;;;;4.20;2.70;;;29.60;60.50;;;;;;5022056;28;20200;-77
2022/09/01 13:25:33;;;;;;;4.32;2.67;;;29.60;60.50;;;;;;5020150;28;20192;-78
2022/09/01 13:28:02;;;;;;;4.25;2.53;;;29.70;60.50;;;;;;5021560;28;20299;-77